Time;durP1;ratioP1;P1;durP2;ratioP2;P2;SDS_P1;SDS_P2;PMS_P1;PMS_P2;Temp;Humidity;BMP_temperature;BMP_pressure;BME280_temperature;BME280_humidity;BME280_pressure;Samples;Min_cycle;Max_cycle;Signal;HPM_P1;HPM_P2
2021/04/22 00:00:49;;;;;;;8.65;1.45;;;6.70;99.90;;;;;;5096690;28;20075;-67
2021/04/22 00:03:21;;;;;;;6.35;1.55;;;6.60;99.90;;;;;;5096042;28;20078;-67
2021/04/22 00:06:08;;;;;;;7.80;1.40;;;6.60;99.90;;;;;;5093002;28;20044;-67
2021/04/22 00:08:52;;;;;;;10.25;1.98;;;6.60;99.90;;;;;;5093622;28;20421;-66
2021/04/22 00:11:27;;;;;;;4.75;1.42;;;6.60;99.90;;;;;;5092015;28;20037;-68
2021/04/22 00:14:08;;;;;;;11.82;1.77;;;6.50;99.90;;;;;;5095974;28;20063;-67
2021/04/22 00:20:45;;;;;;;10.15;2.00;;;6.50;99.90;;;;;;5095703;28;20085;-67
2021/04/22 00:23:18;;;;;;;7.53;1.63;;;6.40;99.90;;;;;;5095978;28;20036;-67
2021/04/22 00:25:46;;;;;;;10.63;1.65;;;6.40;99.90;;;;;;5095877;28;20064;-67
2021/04/22 00:28:17;;;;;;;9.63;1.38;;;6.40;99.90;;;;;;5095965;28;20044;-67
2021/04/22 00:30:46;;;;;;;15.07;2.40;;;6.60;99.90;;;;;;5091401;28;20052;-67
2021/04/22 00:33:24;;;;;;;6.45;1.40;;;6.40;99.90;;;;;;5075807;28;20051;-67
2021/04/22 00:39:31;;;;;;;9.93;1.65;;;6.40;99.90;;;;;;5084776;28;20047;-67
2021/04/22 00:45:53;;;;;;;8.88;1.40;;;6.50;99.90;;;;;;5090834;28;20035;-67
2021/04/22 00:48:25;;;;;;;8.57;2.00;;;6.50;99.90;;;;;;5055367;28;20079;-68
2021/04/22 00:50:56;;;;;;;6.68;1.50;;;6.60;99.90;;;;;;5040252;28;20041;-68
2021/04/22 00:53:51;;;;;;;9.60;1.85;;;6.60;99.90;;;;;;5049739;28;20049;-67
2021/04/22 00:56:30;;;;;;;8.50;1.52;;;6.50;99.90;;;;;;5034964;28;20046;-68
2021/04/22 00:58:57;;;;;;;8.10;1.63;;;6.60;99.90;;;;;;5050344;28;20045;-68
2021/04/22 01:01:25;;;;;;;10.93;1.60;;;6.60;99.90;;;;;;5037270;28;20050;-68
2021/04/22 01:04:19;;;;;;;9.50;1.92;;;6.60;99.90;;;;;;5050265;28;20140;-67
2021/04/22 01:10:49;;;;;;;8.90;1.42;;;6.60;99.90;;;;;;5039753;28;20396;-68
2021/04/22 01:13:20;;;;;;;7.10;1.25;;;6.50;99.90;;;;;;5042494;28;20061;-67
2021/04/22 01:15:48;;;;;;;7.60;1.30;;;6.60;99.90;;;;;;5048869;28;20388;-68
2021/04/22 01:18:20;;;;;;;6.90;2.22;;;6.50;99.90;;;;;;5054541;28;20040;-68
2021/04/22 01:20:50;;;;;;;6.35;1.45;;;6.60;99.90;;;;;;5043391;28;20041;-68
2021/04/22 01:23:19;;;;;;;9.60;1.70;;;6.70;99.90;;;;;;5054566;28;20041;-68
2021/04/22 01:25:50;;;;;;;9.00;1.63;;;6.50;99.90;;;;;;5048795;28;20125;-68
2021/04/22 01:28:20;;;;;;;11.82;2.15;;;6.60;99.90;;;;;;5051192;28;20043;-68
2021/04/22 01:31:02;;;;;;;4.70;1.25;;;6.50;99.90;;;;;;5038422;28;20688;-68
2021/04/22 01:33:56;;;;;;;5.25;1.55;;;6.50;99.90;;;;;;5041180;28;20041;-68
2021/04/22 01:36:32;;;;;;;6.50;1.80;;;6.40;99.90;;;;;;5049963;28;20124;-68
2021/04/22 01:39:13;;;;;;;9.98;1.73;;;6.40;99.90;;;;;;5035661;28;20045;-67
2021/04/22 01:41:40;;;;;;;5.35;1.50;;;6.40;99.90;;;;;;5052846;28;20079;-67
2021/04/22 01:44:18;;;;;;;7.53;1.92;;;6.40;99.90;;;;;;5057126;28;20069;-67
2021/04/22 01:46:44;;;;;;;8.48;1.50;;;6.40;99.90;;;;;;5052866;28;20060;-67
2021/04/22 01:53:31;;;;;;;3.45;1.30;;;6.40;99.90;;;;;;5079921;28;20055;-67
2021/04/22 01:55:57;;;;;;;10.52;1.67;;;6.40;99.90;;;;;;5076161;28;20044;-67
2021/04/22 01:58:35;;;;;;;7.32;2.03;;;6.50;99.90;;;;;;5081941;28;20047;-67
2021/04/22 02:01:03;;;;;;;11.32;1.85;;;6.50;99.90;;;;;;5090285;28;20123;-67
2021/04/22 02:03:32;;;;;;;16.30;3.35;;;6.50;99.90;;;;;;5090266;28;20079;-67
2021/04/22 02:06:07;;;;;;;7.20;1.70;;;6.50;99.90;;;;;;5093415;28;20044;-67
2021/04/22 02:16:08;;;;;;;19.17;3.15;;;6.60;99.90;;;;;;5093895;28;20046;-68
2021/04/22 02:18:35;;;;;;;9.43;2.05;;;6.60;99.90;;;;;;5075690;28;20143;-68
2021/04/22 02:21:09;;;;;;;7.65;1.83;;;6.60;99.90;;;;;;5093526;28;20394;-68
2021/04/22 02:24:02;;;;;;;9.88;1.77;;;6.50;99.90;;;;;;5092827;28;20487;-67
2021/04/22 02:26:31;;;;;;;4.40;1.38;;;6.60;99.90;;;;;;5085590;28;20483;-67
2021/04/22 02:29:25;;;;;;;9.85;2.08;;;6.60;99.90;;;;;;5088311;28;20044;-68
2021/04/22 02:32:00;;;;;;;11.00;2.22;;;6.60;99.90;;;;;;5088824;28;20041;-68
2021/04/22 02:38:19;;;;;;;12.05;1.90;;;6.60;99.90;;;;;;5092093;28;20074;-68
2021/04/22 02:40:52;;;;;;;13.40;1.95;;;6.60;99.90;;;;;;5093664;28;20043;-68
2021/04/22 02:44:02;;;;;;;6.43;1.40;;;6.70;99.90;;;;;;5075582;28;20079;-68
2021/04/22 02:46:28;;;;;;;7.38;1.40;;;6.60;99.90;;;;;;5088113;28;20131;-68
2021/04/22 02:49:00;;;;;;;8.85;1.92;;;6.60;99.90;;;;;;5088278;28;20083;-68
2021/04/22 02:51:35;;;;;;;11.32;2.47;;;6.60;99.90;;;;;;5092982;28;20056;-67
2021/04/22 02:58:22;;;;;;;8.68;1.55;;;6.60;99.90;;;;;;5088014;28;20078;-67
2021/04/22 03:00:56;;;;;;;8.45;1.80;;;6.50;99.90;;;;;;5089636;28;20051;-68
2021/04/22 03:03:39;;;;;;;11.98;2.42;;;6.60;99.90;;;;;;5093499;28;20041;-67
2021/04/22 03:06:23;;;;;;;7.53;1.35;;;6.50;99.90;;;;;;5093214;28;20040;-68
2021/04/22 03:13:22;;;;;;;12.88;1.88;;;6.50;99.90;;;;;;5072826;28;20109;-68
2021/04/22 03:15:54;;;;;;;4.53;1.27;;;6.50;99.90;;;;;;5090761;28;20040;-68
2021/04/22 03:18:22;;;;;;;4.68;1.33;;;6.60;99.90;;;;;;5077313;28;20059;-68
2021/04/22 03:21:27;;;;;;;15.50;2.35;;;6.60;99.90;;;;;;5075351;28;20052;-68
2021/04/22 03:23:53;;;;;;;3.88;1.10;;;6.60;99.90;;;;;;5092428;28;20040;-68
2021/04/22 03:26:22;;;;;;;8.35;2.00;;;6.60;99.90;;;;;;5076727;28;20433;-67
2021/04/22 03:33:22;;;;;;;7.88;1.60;;;6.60;99.90;;;;;;5092934;28;20077;-67
2021/04/22 03:35:56;;;;;;;2.97;1.20;;;6.60;99.90;;;;;;5093062;28;20040;-68
2021/04/22 03:38:22;;;;;;;7.55;1.85;;;6.70;99.90;;;;;;5093005;28;20540;-68
2021/04/22 03:40:54;;;;;;;8.77;1.52;;;6.70;99.90;;;;;;5093675;28;20035;-68
2021/04/22 03:43:23;;;;;;;5.45;2.17;;;6.60;99.90;;;;;;5096735;28;20097;-67
2021/04/22 03:45:51;;;;;;;6.35;1.60;;;6.60;99.90;;;;;;5096782;28;20445;-67
2021/04/22 03:48:22;;;;;;;9.85;1.58;;;6.60;99.90;;;;;;5097537;28;20048;-68
2021/04/22 03:50:53;;;;;;;6.50;1.40;;;6.70;99.90;;;;;;5092355;28;20067;-68
2021/04/22 03:53:27;;;;;;;14.02;1.95;;;6.60;99.90;;;;;;5096533;28;20047;-68
2021/04/22 03:55:54;;;;;;;2.92;1.00;;;6.60;99.90;;;;;;5096128;28;20066;-68
2021/04/22 03:58:23;;;;;;;5.68;1.13;;;6.60;99.90;;;;;;5079110;28;20101;-68
2021/04/22 04:00:55;;;;;;;7.22;1.40;;;6.60;99.90;;;;;;5096458;28;20093;-68
2021/04/22 04:03:35;;;;;;;12.40;1.73;;;6.60;99.90;;;;;;5096285;28;20040;-67
2021/04/22 04:06:07;;;;;;;8.20;1.60;;;6.60;99.90;;;;;;5095968;28;20086;-67
2021/04/22 04:08:45;;;;;;;3.78;1.30;;;6.70;99.90;;;;;;5077667;28;20098;-67
2021/04/22 04:11:34;;;;;;;11.98;1.98;;;6.70;99.90;;;;;;5093581;28;20043;-67
2021/04/22 04:14:04;;;;;;;8.18;1.48;;;6.60;99.90;;;;;;5081440;28;20051;-67
2021/04/22 04:16:32;;;;;;;11.48;1.58;;;6.60;99.90;;;;;;5095848;28;20051;-67
2021/04/22 04:19:00;;;;;;;4.53;1.38;;;6.60;99.90;;;;;;5091143;28;20048;-68
2021/04/22 04:21:39;;;;;;;6.78;1.52;;;6.60;99.90;;;;;;5090753;28;20072;-68
2021/04/22 04:24:16;;;;;;;9.63;2.33;;;6.60;99.90;;;;;;5092277;28;20047;-68
2021/04/22 04:27:04;;;;;;;9.77;2.45;;;6.60;99.90;;;;;;5090758;28;20087;-68
2021/04/22 04:33:53;;;;;;;14.05;2.50;;;6.60;99.90;;;;;;5087026;28;20051;-68
2021/04/22 04:36:46;;;;;;;5.40;1.70;;;6.50;99.90;;;;;;5089884;28;20040;-68
2021/04/22 04:39:35;;;;;;;4.75;1.50;;;6.50;99.90;;;;;;5077536;28;20075;-68
2021/04/22 04:42:27;;;;;;;4.97;1.55;;;6.50;99.90;;;;;;5077325;28;20052;-68
2021/04/22 04:48:34;;;;;;;11.10;2.38;;;6.50;99.90;;;;;;5072553;28;20124;-68
2021/04/22 04:55:00;;;;;;;12.85;2.00;;;6.40;99.90;;;;;;5082185;28;20111;-68
2021/04/22 04:58:21;;;;;;;11.98;2.35;;;6.50;99.90;;;;;;5070294;28;20047;-67
2021/04/22 05:00:53;;;;;;;8.57;1.83;;;6.50;99.90;;;;;;5090601;28;20123;-67
2021/04/22 05:03:30;;;;;;;3.83;1.23;;;6.30;99.90;;;;;;5090623;28;20143;-67
2021/04/22 05:06:28;;;;;;;9.02;2.95;;;6.60;99.90;;;;;;5073915;28;20048;-67
2021/04/22 05:09:00;;;;;;;6.95;1.20;;;6.50;99.90;;;;;;5094851;28;20051;-67
2021/04/22 05:15:59;;;;;;;8.35;1.90;;;6.60;99.90;;;;;;5094714;28;20043;-67
2021/04/22 05:18:43;;;;;;;9.27;1.85;;;6.70;99.90;;;;;;5094764;28;20044;-67
2021/04/22 05:21:15;;;;;;;5.45;1.80;;;6.70;99.90;;;;;;5076604;28;20475;-68
2021/04/22 05:23:48;;;;;;;13.63;2.15;;;6.70;99.90;;;;;;5094083;28;20047;-67
2021/04/22 05:26:33;;;;;;;6.75;1.45;;;6.70;99.90;;;;;;5087461;28;20202;-67
2021/04/22 05:29:08;;;;;;;;;;;6.70;99.90;;;;;;5060449;28;20078;-67
2021/04/22 05:36:02;;;;;;;3.33;1.33;;;6.80;99.90;;;;;;5083036;28;20399;-67
2021/04/22 05:38:36;;;;;;;14.77;1.83;;;6.80;99.90;;;;;;5074575;28;20044;-67
2021/04/22 05:41:11;;;;;;;4.35;1.55;;;6.80;99.90;;;;;;5094586;28;20119;-67
2021/04/22 05:58:46;;;;;;;8.10;1.60;;;7.00;99.90;;;;;;5091396;28;20047;-68
2021/04/22 06:01:22;;;;;;;15.68;2.45;;;7.20;99.90;;;;;;5084499;28;20098;-67
2021/04/22 06:03:48;;;;;;;13.73;2.75;;;7.20;99.90;;;;;;5091235;28;20119;-67
2021/04/22 06:06:38;;;;;;;9.45;1.90;;;7.10;99.90;;;;;;5088035;28;20072;-67
2021/04/22 06:09:10;;;;;;;7.50;1.63;;;7.10;99.90;;;;;;5093877;28;20173;-67
2021/04/22 06:11:54;;;;;;;9.02;2.10;;;7.10;99.90;;;;;;5074570;28;20532;-67
2021/04/22 06:18:03;;;;;;;7.70;2.10;;;7.20;99.90;;;;;;5084505;28;20059;-69
2021/04/22 06:21:02;;;;;;;7.13;1.70;;;7.20;99.90;;;;;;5093714;28;20047;-71
2021/04/22 06:24:14;;;;;;;10.70;2.40;;;7.20;99.90;;;;;;5092691;28;20039;-68
2021/04/22 06:26:56;;;;;;;7.65;1.95;;;7.20;99.90;;;;;;5089049;28;20047;-72
2021/04/22 06:33:32;;;;;;;4.32;1.40;;;7.20;99.90;;;;;;5093495;28;20039;-74
2021/04/22 06:36:04;;;;;;;10.40;2.13;;;7.20;99.90;;;;;;5093395;28;20122;-72
2021/04/22 06:38:33;;;;;;;5.80;1.90;;;7.20;99.90;;;;;;5094115;28;20048;-72
2021/04/22 06:41:05;;;;;;;5.22;1.70;;;7.30;99.90;;;;;;5086132;28;20036;-73
2021/04/22 06:43:56;;;;;;;8.68;1.58;;;7.30;99.90;;;;;;5093499;28;20421;-72
2021/04/22 06:46:36;;;;;;;3.60;1.38;;;7.30;99.90;;;;;;5093418;28;20128;-71
2021/04/22 06:49:03;;;;;;;10.05;1.90;;;7.30;99.90;;;;;;5088188;28;20049;-71
2021/04/22 06:51:39;;;;;;;4.25;1.58;;;7.30;99.90;;;;;;5089656;28;20044;-72
2021/04/22 06:54:05;;;;;;;7.22;1.73;;;7.30;99.90;;;;;;5093068;28;20036;-73
2021/04/22 07:01:01;;;;;;;6.47;1.73;;;7.40;99.90;;;;;;5087099;28;20034;-72
2021/04/22 07:03:55;;;;;;;6.05;1.85;;;7.40;99.90;;;;;;5089038;28;20397;-72
2021/04/22 07:06:43;;;;;;;8.77;2.08;;;7.50;99.90;;;;;;5091074;28;20051;-74
2021/04/22 07:13:31;;;;;;;5.47;1.70;;;7.50;99.90;;;;;;5093767;28;20051;-74
2021/04/22 07:16:02;;;;;;;4.78;1.63;;;7.60;99.90;;;;;;5097091;28;20052;-73
2021/04/22 07:19:00;;;;;;;6.35;2.25;;;7.60;99.90;;;;;;5097039;28;20044;-73
2021/04/22 07:26:02;;;;;;;5.65;1.60;;;7.70;99.90;;;;;;5087567;28;20093;-74
2021/04/22 07:28:38;;;;;;;6.05;1.55;;;7.80;99.90;;;;;;5077055;28;20052;-72
2021/04/22 07:31:05;;;;;;;8.52;2.05;;;7.90;99.90;;;;;;5077245;28;20076;-73
2021/04/22 07:33:31;;;;;;;8.40;1.60;;;7.90;99.90;;;;;;5096926;28;20075;-75
2021/04/22 07:36:05;;;;;;;5.40;1.00;;;7.90;99.90;;;;;;5077567;28;20073;-73
2021/04/22 07:38:32;;;;;;;5.95;1.50;;;7.90;99.90;;;;;;5087496;28;20041;-69
2021/04/22 07:41:05;;;;;;;7.13;1.70;;;8.00;99.90;;;;;;5092211;28;20051;-68
2021/04/22 07:43:32;;;;;;;;;;;8.00;99.90;;;;;;5096892;28;20490;-72
2021/04/22 07:46:04;;;;;;;9.85;2.17;;;7.90;99.90;;;;;;5061667;28;20061;-74
2021/04/22 07:48:32;;;;;;;4.45;1.30;;;7.80;99.90;;;;;;5096233;28;20047;-73
2021/04/22 07:51:03;;;;;;;6.82;1.52;;;7.80;99.90;;;;;;5096573;28;20052;-74
2021/04/22 07:53:44;;;;;;;7.72;1.38;;;7.70;99.90;;;;;;5096596;28;20502;-73
2021/04/22 07:56:16;;;;;;;6.10;1.65;;;7.70;99.90;;;;;;5096592;28;20036;-72
2021/04/22 07:59:00;;;;;;;3.38;1.10;;;7.90;99.90;;;;;;5094145;28;20043;-73
2021/04/22 08:01:43;;;;;;;5.25;1.45;;;8.00;99.90;;;;;;5096322;28;20083;-72
2021/04/22 08:31:21;;;;;;;8.35;1.70;;;8.50;99.90;;;;;;5047655;28;20055;-63
2021/04/22 08:38:46;;;;;;;6.90;1.48;;;8.60;99.90;;;;;;4984097;28;20053;-65
2021/04/22 20:36:24;;;;;;;11.50;2.95;;;6.40;99.90;;;;;;4706182;24;20204;-66
2021/04/22 20:38:54;;;;;;;8.75;2.60;;;6.40;99.90;;;;;;4685117;30;20124;-66
2021/04/22 20:41:28;;;;;;;7.60;2.50;;;6.40;99.90;;;;;;4702037;30;20105;-66
2021/04/22 20:44:00;;;;;;;7.50;2.90;;;6.40;99.90;;;;;;4701171;30;20107;-66
2021/04/22 20:46:30;;;;;;;8.02;2.75;;;6.30;99.90;;;;;;4699677;30;20049;-66
2021/04/22 20:49:01;;;;;;;5.97;2.05;;;6.30;99.90;;;;;;4700836;30;20121;-66
2021/04/22 20:51:27;;;;;;;10.02;2.17;;;6.30;99.90;;;;;;4700775;30;20049;-66
2021/04/22 20:53:54;;;;;;;5.35;2.22;;;6.30;99.90;;;;;;4702051;30;20056;-66
2021/04/22 20:56:26;;;;;;;6.07;2.00;;;6.30;99.90;;;;;;4685246;30;20468;-66
2021/04/22 20:58:59;;;;;;;;;;;6.20;99.90;;;;;;4701176;30;20053;-67
2021/04/22 21:01:26;;;;;;;5.68;1.80;;;6.20;99.90;;;;;;4696340;30;19939;-66
2021/04/22 21:03:57;;;;;;;5.90;2.20;;;6.40;99.90;;;;;;4701745;30;20494;-66
2021/04/22 21:06:30;;;;;;;6.45;2.25;;;6.20;99.90;;;;;;4701750;30;20081;-66
2021/04/22 21:09:34;;;;;;;5.50;1.98;;;6.20;99.90;;;;;;4701816;30;20053;-66
2021/04/22 21:16:28;;;;;;;4.97;2.30;;;6.10;99.90;;;;;;4701299;30;20052;-66
2021/04/22 21:18:59;;;;;;;9.95;2.30;;;6.10;99.90;;;;;;4684119;30;20053;-66
2021/04/22 21:21:33;;;;;;;3.80;1.90;;;6.10;99.90;;;;;;4701318;30;20453;-66
2021/04/22 21:24:25;;;;;;;7.15;1.90;;;6.30;99.90;;;;;;4697017;30;20057;-65
2021/04/22 21:27:03;;;;;;;7.13;2.15;;;6.20;99.90;;;;;;4701105;30;20053;-66
2021/04/22 21:29:45;;;;;;;7.18;2.33;;;6.00;99.90;;;;;;4701203;30;20049;-66
2021/04/22 21:32:18;;;;;;;6.22;1.73;;;6.00;99.90;;;;;;4700883;30;20503;-66
2021/04/22 21:34:45;;;;;;;4.78;1.80;;;6.00;99.90;;;;;;4689677;30;20085;-66
2021/04/22 21:41:28;;;;;;;4.47;2.13;;;5.90;99.90;;;;;;4700639;30;20045;-66
2021/04/22 21:43:56;;;;;;;5.63;2.22;;;5.90;99.90;;;;;;4699431;30;20059;-66
2021/04/22 21:47:03;;;;;;;5.07;1.77;;;5.90;99.90;;;;;;4700896;30;20050;-66
2021/04/22 21:49:31;;;;;;;12.70;2.63;;;6.00;99.90;;;;;;4687814;30;20073;-66
2021/04/22 21:52:29;;;;;;;6.90;2.17;;;6.00;99.90;;;;;;4700551;30;20049;-66
2021/04/22 21:58:56;;;;;;;5.05;1.67;;;5.90;99.90;;;;;;4700576;30;20111;-66
2021/04/22 22:01:25;;;;;;;8.65;2.38;;;5.90;99.90;;;;;;4700922;30;20049;-66
2021/04/22 22:03:54;;;;;;;11.13;2.60;;;5.80;99.90;;;;;;4700944;30;20056;-66
2021/04/22 22:06:27;;;;;;;6.10;2.05;;;5.80;99.90;;;;;;4695356;30;20128;-66
2021/04/22 22:08:57;;;;;;;8.50;2.25;;;5.80;99.90;;;;;;4700394;30;20056;-66
2021/04/22 22:11:24;;;;;;;3.38;1.80;;;5.80;99.90;;;;;;4700633;30;20514;-66
2021/04/22 22:13:56;;;;;;;5.78;2.28;;;5.90;99.90;;;;;;4700724;30;20053;-66
2021/04/22 22:16:24;;;;;;;6.45;1.55;;;5.80;99.90;;;;;;4685706;30;20049;-66
2021/04/22 22:18:56;;;;;;;5.15;2.30;;;5.90;99.90;;;;;;4699287;30;20419;-66
2021/04/22 22:21:25;;;;;;;6.85;2.15;;;5.80;99.90;;;;;;4695911;30;20128;-66
2021/04/22 22:23:57;;;;;;;5.55;1.40;;;5.80;99.90;;;;;;4700378;30;20160;-66
2021/04/22 22:26:32;;;;;;;3.30;1.58;;;5.80;99.90;;;;;;4696464;30;20084;-66
2021/04/22 22:29:11;;;;;;;5.90;1.73;;;5.90;99.90;;;;;;4699938;30;20049;-66
2021/04/22 22:32:08;;;;;;;7.55;1.75;;;5.70;99.90;;;;;;4700684;30;20103;-66
2021/04/22 22:34:34;;;;;;;8.90;2.42;;;5.70;99.90;;;;;;4686376;30;20503;-66
2021/04/22 22:37:10;;;;;;;6.20;1.88;;;5.70;99.90;;;;;;4700371;30;20057;-66
2021/04/22 22:43:55;;;;;;;4.60;1.50;;;5.70;99.90;;;;;;4699798;30;20609;-66
2021/04/22 22:46:27;;;;;;;4.15;1.27;;;5.70;99.90;;;;;;4694254;30;20049;-66
2021/04/22 22:48:56;;;;;;;5.47;1.88;;;5.60;99.90;;;;;;4700275;30;20053;-66
2021/04/22 22:51:38;;;;;;;6.40;2.08;;;5.50;99.90;;;;;;4700268;30;20045;-66
2021/04/22 22:54:28;;;;;;;5.72;2.00;;;5.50;99.90;;;;;;4681184;30;20450;-66
2021/04/22 22:57:09;;;;;;;3.60;1.75;;;5.50;99.90;;;;;;4700391;30;20050;-66
2021/04/22 23:03:50;;;;;;;4.43;1.50;;;5.50;99.90;;;;;;4699940;30;20084;-66
2021/04/22 23:06:21;;;;;;;5.90;1.70;;;5.40;99.90;;;;;;4695892;30;20058;-66
2021/04/22 23:08:56;;;;;;;10.27;2.65;;;5.40;99.90;;;;;;4684092;30;20054;-66
2021/04/22 23:11:22;;;;;;;8.90;2.30;;;5.40;99.90;;;;;;4700507;30;20050;-65
2021/04/22 23:14:17;;;;;;;5.68;1.73;;;5.40;99.90;;;;;;4699917;30;20060;-66
2021/04/22 23:16:58;;;;;;;5.10;1.75;;;5.40;99.90;;;;;;4685181;30;20136;-66
2021/04/22 23:19:29;;;;;;;6.13;1.75;;;5.40;99.90;;;;;;4684825;30;20042;-66
2021/04/22 23:22:02;;;;;;;3.88;1.77;;;5.30;99.90;;;;;;4686736;30;20491;-66
2021/04/22 23:28:50;;;;;;;5.80;1.83;;;5.30;99.90;;;;;;4699771;30;20048;-66
2021/04/22 23:47:20;;;;;;;3.72;1.67;;;5.10;99.90;;;;;;4699571;30;20081;-66
2021/04/22 23:50:10;;;;;;;10.43;2.72;;;5.10;99.90;;;;;;4668038;30;20487;-66
2021/04/22 23:56:50;;;;;;;4.90;1.95;;;5.10;99.90;;;;;;4701358;30;20097;-66
2021/04/22 23:59:27;;;;;;;5.75;2.03;;;5.10;99.90;;;;;;4685264;30;20124;-66
